Aeroporto :
LOGIN :

Iscrizione | Disclaimer

   EN    FR    IT 

 










Sommario :    VFR   VFR Marginale   IFR   IFR Intensivo   IFR Molto Intensivo
Visibilità : 
Base nubi : 
>= 8 km
>= 3000ft
5 / 8 km
1000 / 3000 ft
1500m / 5 km
500 / 1000 ft
800 / 1500m
200 / 500 ft
< 800m
< 200 ft
Simboli :   Temporali  Nebbia  Neve Forte  Precipitazioni Forti  Vento > 20 kt
SIGMETs :   Varie  Temporali  Ghiacco  Turbolenza  Onda orograficha  Ceneri Vulcaniche






- Altitudine del aeroporto : 10 ft
- Codice IATA : MOL


ENML - Molde

ULTIMO METAR :
  • 061820Z 23011KT 9999 SHRA FEW010 SCT020 BKN030 03/01 Q0986

METARs OBSOLETI :
  • 061750Z 26010KT 230V300 9999 FEW015 SCT025 BKN030 03/01 Q0986
  • 061720Z 27008KT 230V300 9999 -SHRA FEW015 SCT025 BKN030 03/02 Q0986
  • 061650Z 26004KT 210V300 9999 FEW015 SCT025 BKN030 03/01 Q0985
  • 061620Z 25012KT 9999 -SHRA FEW015 SCT025 BKN030 03/01 Q0985
  • 061550Z 24017KT 9999 -RA FEW015 SCT025 BKN030 03/01 Q0985

TAF TAF ENML
Valido dal 06 a 18 ore il 06 a 22 ore UTC


061700Z 0618/0622 25015KT 9999 -SHRA FEW015TCU BKN030
TEMPO 0618/0622 4000 SHRASNGS BKN012CB



MetMap, La meteo Aeronautica in un colpo d'occhio ! - Copyright ORBIFLY Dicembre 2007 - Disclaimer

ORBIFLY MET'MAP TEAM :

Programmazione e sviluppo : Alexandra Zaïnal
Concezione : Baudouin d'Aumeries
Aiuto per la programmazione : Marc-Olivier Méhu
Supporto tecnico e logistico : Manuel Goepfert
Aiuto per la traduzione : Arnaldo La Scala

Contatto : metmap@orbifly.com




FONTI E CREDITI :

   NOAA